createdAt,value
2019-02-16T00:02:01.832Z,8.01
2019-02-16T00:04:31.240Z,8.00
2019-02-16T00:07:00.665Z,7.99
2019-02-16T00:09:30.183Z,8.00
2019-02-16T00:11:59.590Z,8.01
2019-02-16T00:14:29.288Z,7.98
2019-02-16T00:16:58.675Z,7.96
2019-02-16T00:19:28.128Z,7.98
2019-02-16T00:21:57.503Z,7.96
2019-02-16T00:24:26.951Z,7.93
2019-02-16T00:26:59.008Z,7.91
2019-02-16T00:29:28.410Z,7.82
2019-02-16T00:31:57.828Z,7.77
2019-02-16T00:34:27.235Z,7.69
2019-02-16T00:36:56.598Z,7.59
2019-02-16T00:39:26.040Z,7.50
2019-02-16T00:41:55.524Z,7.42
2019-02-16T00:44:24.931Z,7.36
2019-02-16T00:46:54.310Z,7.26
2019-02-16T00:49:23.729Z,7.19
2019-02-16T00:51:53.086Z,7.18
2019-02-16T00:54:22.762Z,7.15
2019-02-16T00:56:52.171Z,7.11
2019-02-16T00:59:21.589Z,7.10
2019-02-16T01:01:50.977Z,7.10
2019-02-16T01:04:20.399Z,7.09
2019-02-16T01:06:50.098Z,7.08
2019-02-16T01:09:20.025Z,7.08
2019-02-16T01:11:50.113Z,7.10
2019-02-16T01:14:20.649Z,7.14
2019-02-16T01:16:50.191Z,7.19
2019-02-16T01:19:21.427Z,7.25
2019-02-16T01:21:50.847Z,7.30
2019-02-16T01:24:20.313Z,7.33
2019-02-16T01:26:49.679Z,7.34
2019-02-16T01:29:19.050Z,7.36
2019-02-16T01:31:48.520Z,7.36
2019-02-16T01:34:17.894Z,7.38
2019-02-16T01:36:47.287Z,7.37
2019-02-16T01:39:16.690Z,7.40
2019-02-16T01:41:47.556Z,7.42
2019-02-16T01:44:17.478Z,7.45
2019-02-16T01:46:47.208Z,7.47
2019-02-16T01:49:16.598Z,7.52
2019-02-16T01:51:46.175Z,7.55
2019-02-16T01:54:15.593Z,7.60
2019-02-16T01:56:45.036Z,7.63
2019-02-16T01:59:14.680Z,7.64
2019-02-16T02:01:44.073Z,7.65
2019-02-16T02:04:13.467Z,7.64
2019-02-16T02:06:43.146Z,7.65
2019-02-16T02:09:12.640Z,7.64
2019-02-16T02:11:42.026Z,7.60
2019-02-16T02:14:11.416Z,7.55
2019-02-16T02:16:40.813Z,7.51
2019-02-16T02:19:10.220Z,7.48
2019-02-16T02:21:41.379Z,7.44
2019-02-16T02:24:11.323Z,7.40
2019-02-16T02:26:40.699Z,7.36
2019-02-16T02:29:10.432Z,7.36
2019-02-16T02:31:39.792Z,7.35
2019-02-16T02:34:09.175Z,7.35
2019-02-16T02:36:38.546Z,7.35
2019-02-16T02:39:07.941Z,7.36
2019-02-16T02:41:37.311Z,7.38
2019-02-16T02:44:06.709Z,7.39
2019-02-16T02:46:36.075Z,7.38
2019-02-16T02:49:05.458Z,7.41
2019-02-16T02:51:34.872Z,7.43
2019-02-16T02:54:04.272Z,7.46
2019-02-16T02:56:33.639Z,7.53
2019-02-16T02:59:03.335Z,7.58
2019-02-16T03:01:32.710Z,7.65
2019-02-16T03:04:02.087Z,7.72
2019-02-16T03:06:31.495Z,7.80
2019-02-16T03:09:00.871Z,7.83
2019-02-16T03:11:30.712Z,7.92
2019-02-16T03:14:00.071Z,7.96
2019-02-16T03:16:29.571Z,7.98
2019-02-16T03:18:59.044Z,8.00
2019-02-16T03:21:30.040Z,8.03
2019-02-16T03:23:59.701Z,8.06
2019-02-16T03:26:59.897Z,8.12
2019-02-16T03:29:40.328Z,8.13
2019-02-16T03:32:53.652Z,8.16
2019-02-16T03:35:33.267Z,8.10
2019-02-16T03:38:15.232Z,8.10
2019-02-16T03:40:48.909Z,8.11
2019-02-16T03:43:18.267Z,8.10
2019-02-16T03:45:47.643Z,8.11
2019-02-16T03:48:17.121Z,8.12
2019-02-16T03:50:46.487Z,8.13
2019-02-16T03:53:15.861Z,8.13
2019-02-16T03:55:45.233Z,8.13
2019-02-16T03:58:14.602Z,8.13
2019-02-16T04:00:44.071Z,8.13
2019-02-16T04:03:13.424Z,8.12
2019-02-16T04:05:42.791Z,8.13
2019-02-16T04:08:13.501Z,8.15
2019-02-16T04:10:42.871Z,8.19
2019-02-16T04:13:12.238Z,8.26
2019-02-16T04:15:41.595Z,8.32
2019-02-16T04:18:11.256Z,8.38
2019-02-16T04:20:40.718Z,8.45
2019-02-16T04:23:10.056Z,8.49
2019-02-16T04:25:39.523Z,8.56
2019-02-16T04:28:08.960Z,8.60
2019-02-16T04:30:38.350Z,8.66
2019-02-16T04:33:07.687Z,8.71
2019-02-16T04:35:38.184Z,8.74
2019-02-16T04:38:08.423Z,8.80
2019-02-16T04:40:38.798Z,8.85
2019-02-16T04:43:08.477Z,8.91
2019-02-16T04:45:38.508Z,8.93
2019-02-16T04:48:08.770Z,8.99
2019-02-16T04:50:38.162Z,9.08
2019-02-16T04:53:07.541Z,9.16
2019-02-16T04:55:37.253Z,9.25
2019-02-16T04:58:06.618Z,9.34
2019-02-16T05:00:36.052Z,9.40
2019-02-16T05:03:05.401Z,9.45
2019-02-16T05:05:34.809Z,9.46
2019-02-16T05:08:04.214Z,9.45
2019-02-16T05:10:33.602Z,9.44
2019-02-16T05:13:03.010Z,9.40
2019-02-16T05:15:32.651Z,9.36
2019-02-16T05:18:02.026Z,9.33
2019-02-16T05:20:31.665Z,9.31
2019-02-16T05:23:01.036Z,9.29
2019-02-16T05:25:30.414Z,9.24
2019-02-16T05:27:59.879Z,9.18
2019-02-16T05:30:29.364Z,9.10
2019-02-16T05:32:59.037Z,9.05
2019-02-16T05:35:28.503Z,8.95
2019-02-16T05:37:58.200Z,8.86
2019-02-16T05:40:28.006Z,8.77
2019-02-16T05:42:58.981Z,8.69
2019-02-16T05:45:31.880Z,8.61
2019-02-16T05:48:01.575Z,8.51
2019-02-16T05:50:31.093Z,8.44
2019-02-16T05:53:00.578Z,8.39
2019-02-16T05:55:30.410Z,8.35
2019-02-16T05:58:00.327Z,8.30
2019-02-16T06:00:31.604Z,8.27
2019-02-16T06:03:01.131Z,8.19
2019-02-16T06:05:31.967Z,8.11
2019-02-16T06:08:01.516Z,8.04
2019-02-16T06:10:30.912Z,7.96
2019-02-16T06:13:00.309Z,7.87
2019-02-16T06:15:29.795Z,7.77
2019-02-16T06:17:59.266Z,7.71
2019-02-16T06:20:28.726Z,7.62
2019-02-16T06:23:04.391Z,7.56
2019-02-16T06:25:29.292Z,7.53
2019-02-16T06:27:58.688Z,7.53
2019-02-16T06:30:28.639Z,7.56
2019-02-16T06:32:58.124Z,7.63
2019-02-16T06:35:32.358Z,7.68
2019-02-16T06:38:01.780Z,7.73
2019-02-16T06:40:31.403Z,7.79
2019-02-16T06:43:00.795Z,7.87
2019-02-16T06:45:32.138Z,7.92
2019-02-16T06:48:01.536Z,7.99
2019-02-16T06:50:36.997Z,8.05
2019-02-16T06:53:12.587Z,8.11
2019-02-16T06:55:43.046Z,8.14
2019-02-16T06:58:12.460Z,8.23
2019-02-16T07:00:42.085Z,8.39
2019-02-16T07:03:12.345Z,8.63
2019-02-16T07:05:41.790Z,8.95
2019-02-16T07:08:11.251Z,9.33
2019-02-16T07:10:40.735Z,9.82
2019-02-16T07:13:10.985Z,10.32
2019-02-16T07:15:40.569Z,10.91
2019-02-16T07:18:24.319Z,11.53
2019-02-16T07:20:53.836Z,12.20
2019-02-16T07:23:23.326Z,12.83
2019-02-16T07:25:52.977Z,13.47
2019-02-16T07:28:22.813Z,14.13
2019-02-16T07:30:53.139Z,14.78
2019-02-16T07:33:22.752Z,15.35
2019-02-16T07:35:52.212Z,15.84
2019-02-16T07:38:22.221Z,16.35
2019-02-16T07:40:53.291Z,16.92
2019-02-16T07:43:40.481Z,17.46
2019-02-16T07:46:14.506Z,18.04
2019-02-16T07:48:47.825Z,18.59
2019-02-16T07:51:20.465Z,19.19
2019-02-16T07:54:09.424Z,19.80
2019-02-16T07:56:43.431Z,20.45
2019-02-16T07:59:16.494Z,21.09
2019-02-16T08:01:47.563Z,21.73
2019-02-16T08:04:20.507Z,22.39
2019-02-16T08:06:54.487Z,23.04
2019-02-16T08:09:25.712Z,23.69
2019-02-16T08:12:00.435Z,24.31
2019-02-16T08:14:33.320Z,24.92
2019-02-16T08:17:19.522Z,25.50
2019-02-16T08:19:53.445Z,26.07
2019-02-16T08:22:24.920Z,26.55
2019-02-16T08:25:00.299Z,26.88
2019-02-16T08:27:44.282Z,27.08
2019-02-16T08:30:21.623Z,27.26
2019-02-16T08:33:08.945Z,27.41
2019-02-16T08:35:52.838Z,27.58
2019-02-16T08:38:33.218Z,27.73
2019-02-16T08:41:10.011Z,27.94
2019-02-16T08:43:47.155Z,28.05
2019-02-16T08:46:22.525Z,28.14
2019-02-16T08:48:59.422Z,28.35
2019-02-16T08:51:44.184Z,28.57
2019-02-16T08:54:33.783Z,28.76
2019-02-16T08:57:25.825Z,28.77
2019-02-16T09:00:04.783Z,28.87
2019-02-16T09:02:38.576Z,29.08
2019-02-16T09:05:30.863Z,29.37
2019-02-16T09:08:22.068Z,29.66
2019-02-16T09:10:53.398Z,29.95
2019-02-16T09:13:27.717Z,30.15
2019-02-16T09:16:09.595Z,30.13
2019-02-16T09:18:47.277Z,30.03
2019-02-16T09:21:27.764Z,29.95
2019-02-16T09:24:08.417Z,29.87
2019-02-16T09:26:45.549Z,29.78
2019-02-16T09:29:16.673Z,29.75
2019-02-16T09:31:50.422Z,29.68
2019-02-16T09:34:23.546Z,29.55
2019-02-16T09:36:55.006Z,29.33
2019-02-16T09:39:26.367Z,29.16
2019-02-16T09:42:06.120Z,29.05
2019-02-16T09:44:39.104Z,29.07
2019-02-16T09:47:13.135Z,29.19
2019-02-16T09:49:50.692Z,29.38
2019-02-16T09:52:26.218Z,29.62
2019-02-16T09:55:13.735Z,29.87
2019-02-16T09:57:47.554Z,30.14
2019-02-16T10:00:18.817Z,30.40
2019-02-16T10:02:50.013Z,30.64
2019-02-16T10:05:34.144Z,30.82
2019-02-16T10:08:21.587Z,31.00
2019-02-16T10:10:55.664Z,31.11
2019-02-16T10:13:43.349Z,31.06
2019-02-16T10:16:33.645Z,30.91
2019-02-16T10:19:24.261Z,30.76
2019-02-16T10:21:58.161Z,30.63
2019-02-16T10:24:29.330Z,30.51
2019-02-16T10:27:03.159Z,30.45
2019-02-16T10:29:34.469Z,30.40
2019-02-16T10:32:08.699Z,30.40
2019-02-16T10:34:48.936Z,30.46
2019-02-16T10:37:23.327Z,30.53
2019-02-16T10:39:54.669Z,30.49
2019-02-16T10:42:37.732Z,30.38
2019-02-16T10:45:27.885Z,30.24
2019-02-16T10:48:08.004Z,30.06
2019-02-16T10:50:39.663Z,29.86
2019-02-16T10:53:10.992Z,29.64
2019-02-16T10:55:49.181Z,29.47
2019-02-16T10:58:28.904Z,29.45
2019-02-16T11:01:02.863Z,29.42
2019-02-16T11:03:49.777Z,29.32
2019-02-16T11:06:42.130Z,29.04
2019-02-16T11:09:14.169Z,28.74
2019-02-16T11:11:54.755Z,28.58
2019-02-16T11:14:42.292Z,28.41
2019-02-16T11:17:27.840Z,28.29
2019-02-16T11:20:14.630Z,28.14
2019-02-16T11:22:45.777Z,27.88
2019-02-16T11:25:19.914Z,27.66
2019-02-16T11:27:51.514Z,27.51
2019-02-16T11:30:38.872Z,27.45
2019-02-16T11:33:15.865Z,27.29
2019-02-16T11:35:53.673Z,27.18
2019-02-16T11:38:40.619Z,27.11
2019-02-16T11:41:18.668Z,27.02
2019-02-16T11:43:57.036Z,26.96
2019-02-16T11:46:34.201Z,26.71
2019-02-16T11:49:08.435Z,26.32
2019-02-16T11:51:43.596Z,25.88
2019-02-16T11:54:23.558Z,25.51
2019-02-16T11:57:03.472Z,25.22
2019-02-16T11:59:46.631Z,25.00
2019-02-16T12:02:23.130Z,24.70
2019-02-16T12:04:57.153Z,24.41
2019-02-16T12:07:28.292Z,24.21
2019-02-16T12:10:14.616Z,24.04
2019-02-16T12:13:02.167Z,23.91
2019-02-16T12:15:42.441Z,23.78
2019-02-16T12:18:19.383Z,23.67
2019-02-16T12:20:56.363Z,23.57
2019-02-16T12:23:35.404Z,23.46
2019-02-16T12:26:12.299Z,23.34
2019-02-16T12:28:47.943Z,23.22
2019-02-16T12:31:19.067Z,23.08
2019-02-16T12:33:52.864Z,22.98
2019-02-16T12:36:30.196Z,22.87
2019-02-16T12:39:05.099Z,22.75
2019-02-16T12:41:52.602Z,22.62
2019-02-16T12:44:23.895Z,22.45
2019-02-16T12:47:00.406Z,22.35
2019-02-16T12:49:31.617Z,22.25
2019-02-16T12:52:20.775Z,22.16
2019-02-16T12:54:52.725Z,22.06
2019-02-16T12:57:24.144Z,21.98
2019-02-16T12:59:57.917Z,21.93
2019-02-16T13:02:29.153Z,21.87
2019-02-16T13:05:03.467Z,21.84
2019-02-16T13:07:37.345Z,21.79
2019-02-16T13:10:14.180Z,21.72
2019-02-16T13:12:46.736Z,21.66
2019-02-16T13:15:30.232Z,21.62
2019-02-16T13:18:10.178Z,21.57
2019-02-16T13:20:54.254Z,21.50
2019-02-16T13:23:25.441Z,21.48
2019-02-16T13:26:04.055Z,21.47
2019-02-16T13:28:40.905Z,21.41
2019-02-16T13:31:14.981Z,21.36
2019-02-16T13:33:46.242Z,21.28
2019-02-16T13:36:29.335Z,21.20
2019-02-16T13:39:03.417Z,21.10
2019-02-16T13:41:34.823Z,21.04
2019-02-16T13:44:09.137Z,21.00
2019-02-16T13:46:40.302Z,20.93
2019-02-16T13:49:11.865Z,20.90
2019-02-16T13:51:59.844Z,20.83
2019-02-16T13:54:34.166Z,20.74
2019-02-16T13:57:17.577Z,20.67
2019-02-16T13:59:54.821Z,20.60
2019-02-16T14:02:28.810Z,20.57
2019-02-16T14:05:02.617Z,20.55
2019-02-16T14:07:33.787Z,20.49
2019-02-16T14:10:07.561Z,20.47
2019-02-16T14:12:48.245Z,20.42
2019-02-16T14:15:29.639Z,20.38
2019-02-16T14:17:59.230Z,20.33
2019-02-16T14:20:28.782Z,20.28
2019-02-16T14:22:58.286Z,20.25
2019-02-16T14:25:42.732Z,20.23
2019-02-16T14:28:06.896Z,20.19
2019-02-16T14:30:36.317Z,20.15
2019-02-16T14:33:08.846Z,20.12
2019-02-16T14:35:38.489Z,20.06
2019-02-16T14:38:13.028Z,20.02
2019-02-16T14:40:44.367Z,19.97
2019-02-16T14:43:18.599Z,19.90
2019-02-16T14:45:48.187Z,19.86
2019-02-16T14:48:17.833Z,19.83
2019-02-16T14:50:47.265Z,19.77
2019-02-16T14:53:16.681Z,19.73
2019-02-16T14:55:53.830Z,19.70
2019-02-16T14:58:17.699Z,19.66
2019-02-16T15:00:47.245Z,19.63
2019-02-16T15:03:17.080Z,19.57
2019-02-16T15:05:51.300Z,19.53
2019-02-16T15:08:20.984Z,19.47
2019-02-16T15:10:50.818Z,19.45
2019-02-16T15:13:20.596Z,19.42
2019-02-16T15:15:50.131Z,19.37
2019-02-16T15:18:19.880Z,19.33
2019-02-16T15:20:50.359Z,19.30
2019-02-16T15:23:19.919Z,19.26
2019-02-16T15:25:49.797Z,19.22
2019-02-16T15:28:19.603Z,19.19
2019-02-16T15:30:49.458Z,19.14
2019-02-16T15:33:18.856Z,19.11
2019-02-16T15:35:48.620Z,19.07
2019-02-16T15:38:18.021Z,19.02
2019-02-16T15:40:47.543Z,18.94
2019-02-16T15:43:17.284Z,18.90
2019-02-16T15:45:46.997Z,18.85
2019-02-16T15:48:16.849Z,18.78
2019-02-16T15:50:46.295Z,18.72
2019-02-16T15:53:15.794Z,18.66
2019-02-16T15:55:53.267Z,18.60
2019-02-16T15:58:22.757Z,18.54
2019-02-16T16:00:52.406Z,18.45
2019-02-16T16:03:21.913Z,18.39
2019-02-16T16:05:51.712Z,18.31
2019-02-16T16:08:25.416Z,18.24
2019-02-16T16:11:05.151Z,18.14
2019-02-16T16:13:41.795Z,18.05
2019-02-16T16:16:15.769Z,17.96
2019-02-16T16:18:47.122Z,17.88
2019-02-16T16:21:34.828Z,17.78
2019-02-16T16:24:06.178Z,17.66
2019-02-16T16:26:53.557Z,17.61
2019-02-16T16:29:40.207Z,17.48
2019-02-16T16:32:11.281Z,17.36
2019-02-16T16:35:00.680Z,17.28
2019-02-16T16:37:37.574Z,17.17
2019-02-16T16:40:15.511Z,17.03
2019-02-16T16:43:05.512Z,16.91
2019-02-16T16:45:36.713Z,16.75
2019-02-16T16:48:07.992Z,16.62
2019-02-16T16:50:50.909Z,16.48
2019-02-16T16:53:31.427Z,16.33
2019-02-16T16:56:05.699Z,16.17
2019-02-16T16:58:39.967Z,16.04
2019-02-16T17:01:10.835Z,15.91
2019-02-16T17:03:44.821Z,15.78
2019-02-16T17:06:22.051Z,15.65
2019-02-16T17:08:53.850Z,15.48
2019-02-16T17:11:28.005Z,15.37
2019-02-16T17:13:59.318Z,15.24
2019-02-16T17:16:39.441Z,15.13
2019-02-16T17:19:21.771Z,15.00
2019-02-16T17:21:53.162Z,14.87
2019-02-16T17:24:40.435Z,14.82
2019-02-16T17:27:11.564Z,14.69
2019-02-16T17:29:42.942Z,14.58
2019-02-16T17:32:16.832Z,14.51
2019-02-16T17:35:04.485Z,14.38
2019-02-16T17:37:35.477Z,14.24
2019-02-16T17:40:14.257Z,14.17
2019-02-16T17:42:51.199Z,14.11
2019-02-16T17:45:23.034Z,14.09
2019-02-16T17:48:03.193Z,14.09
2019-02-16T17:50:34.333Z,14.04
2019-02-16T17:53:11.417Z,14.01
2019-02-16T17:55:48.147Z,13.98
2019-02-16T17:58:21.752Z,13.93
2019-02-16T18:00:52.865Z,13.90
2019-02-16T18:03:40.786Z,13.86
2019-02-16T18:06:20.875Z,13.82
2019-02-16T18:09:01.602Z,13.77
2019-02-16T18:11:38.461Z,13.69
2019-02-16T18:14:15.261Z,13.65
2019-02-16T18:16:46.294Z,13.56
2019-02-16T18:19:17.366Z,13.50
2019-02-16T18:21:48.419Z,13.42
2019-02-16T18:24:25.250Z,13.35
2019-02-16T18:26:56.997Z,13.24
2019-02-16T18:29:28.429Z,13.18
2019-02-16T18:32:02.000Z,13.10
2019-02-16T18:34:33.923Z,13.02
2019-02-16T18:37:13.897Z,12.97
2019-02-16T18:40:02.329Z,12.88
2019-02-16T18:42:36.351Z,12.77
2019-02-16T18:45:11.894Z,12.68
2019-02-16T18:47:47.681Z,12.63
2019-02-16T18:50:22.960Z,12.57
2019-02-16T18:53:08.840Z,12.49
2019-02-16T18:58:35.748Z,12.32
2019-02-16T19:01:06.798Z,12.24
2019-02-16T19:03:43.406Z,12.20
2019-02-16T19:06:30.778Z,12.14
2019-02-16T19:09:01.758Z,12.02
2019-02-16T19:11:48.218Z,12.01
2019-02-16T19:14:20.381Z,11.94
2019-02-16T19:16:54.111Z,11.92
2019-02-16T19:19:34.044Z,11.92
2019-02-16T19:22:10.745Z,11.89
2019-02-16T19:24:44.407Z,11.84
2019-02-16T19:27:20.978Z,11.84
2019-02-16T19:30:01.187Z,11.81
2019-02-16T19:32:35.195Z,11.78
2019-02-16T19:35:07.040Z,11.76
2019-02-16T19:37:40.843Z,11.76
2019-02-16T19:40:17.594Z,11.73
2019-02-16T19:42:48.939Z,11.70
2019-02-16T19:45:22.783Z,11.69
2019-02-16T19:47:53.801Z,11.67
2019-02-16T19:50:27.753Z,11.68
2019-02-16T19:52:58.770Z,11.67
2019-02-16T19:55:35.235Z,11.67
2019-02-16T19:58:06.497Z,11.66
2019-02-16T20:00:37.523Z,11.68
2019-02-16T20:03:11.262Z,11.68
2019-02-16T20:05:58.669Z,11.69
2019-02-16T20:08:41.502Z,11.66
2019-02-16T20:11:15.291Z,11.65
2019-02-16T20:13:46.298Z,11.65
2019-02-16T20:16:17.351Z,11.65
2019-02-16T20:19:00.130Z,11.67
2019-02-16T20:21:36.932Z,11.67
2019-02-16T20:24:07.945Z,11.68
2019-02-16T20:26:57.303Z,11.68
2019-02-16T20:29:31.006Z,11.65
2019-02-16T20:32:02.339Z,11.65
2019-02-16T20:34:58.782Z,11.68
2019-02-16T20:37:35.620Z,11.63
2019-02-16T20:40:23.995Z,11.59
2019-02-16T20:43:10.021Z,11.54
2019-02-16T20:45:41.091Z,11.48
2019-02-16T20:48:14.864Z,11.44
2019-02-16T20:50:45.921Z,11.38
2019-02-16T20:53:34.926Z,11.35
2019-02-16T20:56:18.011Z,11.25
2019-02-16T20:59:05.210Z,11.18
2019-02-16T21:01:38.763Z,11.08
2019-02-16T21:04:09.776Z,11.04
2019-02-16T21:06:49.956Z,10.99
2019-02-16T21:09:23.722Z,10.95
2019-02-16T21:11:57.378Z,10.91
2019-02-16T21:14:28.393Z,10.86
2019-02-16T21:17:02.107Z,10.85
2019-02-16T21:19:38.741Z,10.83
2019-02-16T21:22:25.721Z,10.82
2019-02-16T21:24:56.740Z,10.75
2019-02-16T21:27:28.006Z,10.73
2019-02-16T21:29:59.033Z,10.75
2019-02-16T21:32:30.078Z,10.78
2019-02-16T21:35:01.083Z,10.79
2019-02-16T21:37:43.597Z,10.80
2019-02-16T21:40:17.295Z,10.80
2019-02-16T21:42:54.335Z,10.80
2019-02-16T21:45:25.348Z,10.77
2019-02-16T21:48:05.489Z,10.76
2019-02-16T21:50:52.841Z,10.74
2019-02-16T21:53:26.970Z,10.69
2019-02-16T21:56:13.937Z,10.67
2019-02-16T21:58:47.382Z,10.62
2019-02-16T22:01:18.397Z,10.61
2019-02-16T22:03:49.448Z,10.60
2019-02-16T22:06:23.500Z,10.59
2019-02-16T22:09:00.270Z,10.61
2019-02-16T22:11:31.610Z,10.61
2019-02-16T22:14:00.996Z,10.64
2019-02-16T22:16:30.708Z,10.64
2019-02-16T22:19:00.086Z,10.68
2019-02-16T22:21:29.454Z,10.70
2019-02-16T22:23:58.852Z,10.71
2019-02-16T22:26:28.208Z,10.70
2019-02-16T22:28:57.600Z,10.69
2019-02-16T22:31:27.743Z,10.67
2019-02-16T22:33:57.141Z,10.65
2019-02-16T22:36:26.587Z,10.64
2019-02-16T22:38:56.392Z,10.64
2019-02-16T22:41:25.827Z,10.61
2019-02-16T22:43:55.200Z,10.59
2019-02-16T22:46:24.583Z,10.57
2019-02-16T22:48:57.789Z,10.53
2019-02-16T22:51:27.158Z,10.52
2019-02-16T22:53:56.544Z,10.51
2019-02-16T22:56:25.947Z,10.49
2019-02-16T22:58:55.324Z,10.48
2019-02-16T23:01:25.279Z,10.48
2019-02-16T23:03:58.581Z,10.48
2019-02-16T23:06:28.427Z,10.47
2019-02-16T23:08:58.162Z,10.47
2019-02-16T23:11:27.796Z,10.48
2019-02-16T23:16:53.267Z,10.43
2019-02-16T23:19:25.044Z,10.42
2019-02-16T23:21:54.402Z,10.45
2019-02-16T23:24:23.794Z,10.47
2019-02-16T23:26:53.171Z,10.48
2019-02-16T23:29:22.555Z,10.51
2019-02-16T23:31:51.935Z,10.52
2019-02-16T23:34:21.311Z,10.53
2019-02-16T23:36:51.059Z,10.52
2019-02-16T23:39:20.620Z,10.53
2019-02-16T23:41:50.189Z,10.51
2019-02-16T23:44:19.625Z,10.50
2019-02-16T23:46:51.417Z,10.47
2019-02-16T23:49:20.185Z,10.45
2019-02-16T23:51:49.555Z,10.41
2019-02-16T23:54:18.931Z,10.40
2019-02-16T23:56:48.333Z,10.37
2019-02-16T23:59:17.761Z,10.35
